KJAC/JAC METAR and TAF weather

Enter ICAO airport designator
Station Type Date Time Source
KJAC METAR 2019/04/24 21:56 UTC NOAA

KJAC 242156Z 22015G26KT 10SM BKN065 15/02 A3002 RMK AO2 PK WND 21026/2148 SLP151 T01500017


Station Type Date Time Source
KJAC Decoded METAR 2019/04/24 21:56 UTC NOAA

Jackson, Jackson Hole Airport, WY, United States (KJAC) 43-36N 110-44W
Apr 24, 2019 - 05:56 PM EDT / 2019.04.24 2156 UTC
Wind: from the SW (220 degrees) at 17 MPH (15 KT) gusting to 30 MPH (26 KT):0
Visibility: 10 mile(s):0
Sky conditions: mostly cloudy
Temperature: 59.0 F (15.0 C)
Dew Point: 35.1 F (1.7 C)
Relative Humidity: 40%
Pressure (altimeter): 30.02 in. Hg (1016 hPa)
ob: KJAC 242156Z 22015G26KT 10SM BKN065 15/02 A3002 RMK AO2 PK WND 21026/2148 SLP151 T01500017
cycle: 22

Station Type Date Time Source
KJAC TAF 2019/04/24 18:24 UTC NOAA

TAF KJAC 241722Z 2418/2518 21008KT P6SM SCT040 BKN060
FM242000 24013G21KT P6SM VCTS FEW040 BKN060CB
TEMPO 2422/2501 VRB20G30KT -TSRA SCT030 BKN050CB
FM250200 28011KT P6SM FEW040 SCT070
FM250500 36007KT P6SM SKC
FM251600 21007KT P6SM SKC
AMD LTD TO CLD VIS AND WIND

Example: see airport list